Portada
METAR-TAF:

METAR-TAF

Aeroports :

Greenwood, Mississipí, Estats Units d'Amèrica

latitud: 33-29-33N, longitud: 090-05-01W, altitud: 47 m

Observació

L'informe es va fer fa 17 minuts, a les 16:53 UTC
Vent 5 kt del Nord/Nord-Est
Temperatura 28°C
Humitat 45%
Pressió 1022 hPa
Visibilitat: 16.1 km
Cel clar

METAR: KGWO 011653Z AUTO 03005KT 10SM CLR 28/15 A3017 RMK AO2 SLP215 T02830150

Hora: 12:10 (17:10 UTC)

Pronòstic

L'informe es va fer fa 5 hores i 50 minuts, a les 11:20 UTC
Pronòstic vàlid del 01 a les 12 UTC al 02 a les 12 UTC
Vent 6 kt del Nord-Est
Visibilitat: 10 km
Núvols disperses a una alçada de 20000 ft

TAF: KGWO 011120Z 0112/0212 05006KT P6SM SCT200

Observacions i pronòstics meteorològics de més de 4000 aeroports (METAR i TAF).

Les estacions disponibles són els punts grocs i vermells al mapa.

Posi el ratolí al punt desitjat per veure el nom de l'estació.

Feu clic per veure les observacions i els pronòstics meteorològics.

Per canviar el mapa: feu clic els botons verds amb una creu de color negre per apropar; al botó verd amb un guió per allunyar la imatge; o en les fletxes verdes per a mapes adjacents.


METAR-TAF: